createdAt,value
2019-05-12T00:00:14.779Z,26.37
2019-05-12T00:02:48.647Z,32.90
2019-05-12T00:05:22.486Z,26.23
2019-05-12T00:07:58.714Z,26.43
2019-05-12T00:10:31.408Z,25.27
2019-05-12T00:13:04.980Z,25.43
2019-05-12T00:15:38.735Z,23.03
2019-05-12T00:18:12.269Z,24.57
2019-05-12T00:20:47.683Z,29.40
2019-05-12T00:23:26.895Z,28.83
2019-05-12T00:25:58.838Z,25.77
2019-05-12T00:28:32.122Z,29.37
2019-05-12T00:31:05.841Z,28.60
2019-05-12T00:33:39.497Z,31.27
2019-05-12T00:36:13.099Z,32.47
2019-05-12T00:38:48.542Z,30.80
2019-05-12T00:41:21.952Z,28.63
2019-05-12T00:43:55.552Z,30.87
2019-05-12T00:50:08.277Z,30.57
2019-05-12T00:52:41.883Z,33.93
2019-05-12T00:55:15.575Z,26.47
2019-05-12T00:57:49.301Z,32.23
2019-05-12T01:00:23.144Z,26.37
2019-05-12T01:06:42.938Z,34.60
2019-05-12T01:09:17.646Z,34.87
2019-05-12T01:11:51.754Z,27.80
2019-05-12T01:14:25.357Z,27.17
2019-05-12T01:16:58.991Z,26.97
2019-05-12T01:19:32.681Z,26.37
2019-05-12T01:22:08.103Z,29.30
2019-05-12T01:24:41.575Z,22.23
2019-05-12T01:27:15.179Z,19.87
2019-05-12T01:29:48.767Z,26.87
2019-05-12T01:32:30.107Z,25.63
2019-05-12T01:35:05.199Z,23.93
2019-05-12T01:37:39.775Z,25.83
2019-05-12T01:40:14.973Z,21.40
2019-05-12T01:42:48.716Z,23.83
2019-05-12T01:45:22.425Z,23.70
2019-05-12T01:47:59.163Z,28.80
2019-05-12T01:50:32.387Z,23.17
2019-05-12T01:53:08.176Z,26.27
2019-05-12T01:55:41.273Z,29.27
2019-05-12T01:58:14.859Z,28.07
2019-05-12T02:00:48.639Z,26.70
2019-05-12T02:03:22.231Z,23.90
2019-05-12T02:05:57.956Z,24.53
2019-05-12T02:08:38.224Z,24.70
2019-05-12T02:11:29.061Z,17.23
2019-05-12T02:14:04.535Z,23.57
2019-05-12T02:16:38.762Z,23.07
2019-05-12T02:19:12.487Z,21.73
2019-05-12T02:21:48.544Z,22.67
2019-05-12T02:24:27.034Z,19.70
2019-05-12T02:26:57.855Z,20.27
2019-05-12T02:29:31.679Z,20.33
2019-05-12T02:35:46.607Z,23.23
2019-05-12T02:38:20.353Z,19.50
2019-05-12T02:40:55.430Z,27.33
2019-05-12T02:43:29.309Z,28.33
2019-05-12T02:46:04.777Z,20.10
2019-05-12T02:52:15.556Z,24.60
2019-05-12T02:54:55.576Z,20.30
2019-05-12T02:57:26.959Z,22.47
2019-05-12T03:00:04.695Z,18.60
2019-05-12T03:02:37.336Z,20.47
2019-05-12T03:05:14.577Z,17.47
2019-05-12T03:07:48.350Z,18.13
2019-05-12T03:10:24.536Z,27.10
2019-05-12T03:12:57.266Z,22.07
2019-05-12T03:15:30.868Z,21.03
2019-05-12T03:18:06.272Z,18.13
2019-05-12T03:20:40.017Z,19.57
2019-05-12T03:23:15.411Z,20.30
2019-05-12T03:25:48.947Z,18.17
2019-05-12T03:28:25.557Z,22.20
2019-05-12T03:30:58.507Z,16.10
2019-05-12T03:33:35.982Z,16.53
2019-05-12T03:36:09.819Z,17.43
2019-05-12T03:38:44.773Z,15.73
2019-05-12T03:41:18.293Z,13.90
2019-05-12T03:43:54.846Z,11.70
2019-05-12T03:46:27.154Z,12.07
2019-05-12T03:49:00.754Z,15.67
2019-05-12T03:51:35.182Z,16.60
2019-05-12T03:54:08.963Z,17.33
2019-05-12T03:56:45.041Z,17.80
2019-05-12T03:59:17.974Z,13.97
2019-05-12T04:01:51.551Z,11.57
2019-05-12T04:04:25.997Z,13.60
2019-05-12T04:06:59.588Z,15.63
2019-05-12T04:09:34.816Z,8.37
2019-05-12T04:12:08.510Z,14.80
2019-05-12T04:14:44.901Z,11.63
2019-05-12T04:17:18.209Z,10.17
2019-05-12T04:19:54.821Z,18.40
2019-05-12T04:22:27.195Z,13.07
2019-05-12T04:25:00.834Z,12.27
2019-05-12T04:27:34.971Z,12.47
2019-05-12T04:30:09.388Z,14.80
2019-05-12T04:36:28.898Z,9.93
2019-05-12T04:39:04.383Z,13.87
2019-05-12T04:41:38.151Z,11.17
2019-05-12T04:44:14.861Z,11.77
2019-05-12T04:46:46.985Z,11.57
2019-05-12T04:52:57.844Z,9.93
2019-05-12T04:55:31.518Z,13.90
2019-05-12T04:58:05.597Z,14.17
2019-05-12T05:00:39.485Z,13.50
2019-05-12T05:03:14.151Z,13.57
2019-05-12T05:05:48.175Z,10.00
2019-05-12T05:08:24.343Z,13.00
2019-05-12T05:10:57.248Z,10.40
2019-05-12T05:13:30.840Z,10.23
2019-05-12T05:16:05.394Z,13.13
2019-05-12T05:18:40.893Z,12.37
2019-05-12T05:21:14.702Z,13.33
2019-05-12T05:23:48.282Z,9.27
2019-05-12T05:26:27.649Z,10.87
2019-05-12T05:28:57.222Z,7.63
2019-05-12T05:31:30.930Z,8.63
2019-05-12T05:34:05.105Z,8.13
2019-05-12T05:36:38.730Z,11.40
2019-05-12T05:39:13.915Z,7.93
2019-05-12T05:41:51.131Z,15.90
2019-05-12T05:44:29.157Z,12.50
2019-05-12T05:47:00.265Z,10.83
2019-05-12T05:49:34.271Z,9.40
2019-05-12T05:52:07.971Z,8.87
2019-05-12T05:54:43.876Z,9.73
2019-05-12T05:57:20.012Z,9.83
2019-05-12T05:59:53.797Z,8.53
2019-05-12T06:02:31.424Z,8.97
2019-05-12T06:05:04.377Z,11.30
2019-05-12T06:07:39.290Z,6.87
2019-05-12T06:10:14.432Z,10.03
2019-05-12T06:12:50.951Z,9.97
2019-05-12T06:15:24.226Z,11.23
2019-05-12T06:21:38.262Z,12.27
2019-05-12T06:24:19.544Z,8.70
2019-05-12T06:26:57.679Z,6.50
2019-05-12T06:29:25.101Z,8.80
2019-05-12T06:31:59.990Z,7.73
2019-05-12T06:38:23.552Z,7.80
2019-05-12T06:40:57.122Z,10.47
2019-05-12T06:43:35.010Z,7.60
2019-05-12T06:46:06.095Z,7.93
2019-05-12T06:48:42.492Z,10.30
2019-05-12T06:51:22.190Z,8.13
2019-05-12T06:53:50.289Z,6.17
2019-05-12T06:56:23.916Z,9.17
2019-05-12T06:59:01.050Z,8.60
2019-05-12T07:01:33.526Z,9.53
2019-05-12T07:04:10.036Z,7.57
2019-05-12T07:06:44.133Z,6.87
2019-05-12T07:09:25.112Z,10.93
2019-05-12T07:12:02.421Z,9.20
2019-05-12T07:14:28.536Z,12.90
2019-05-12T07:17:06.016Z,7.87
2019-05-12T07:19:39.129Z,7.47
2019-05-12T07:22:22.403Z,9.07
2019-05-12T07:24:50.583Z,7.60
2019-05-12T07:27:36.027Z,6.77
2019-05-12T07:29:58.732Z,10.13
2019-05-12T07:32:34.360Z,8.03
2019-05-12T07:35:08.744Z,7.30
2019-05-12T07:37:43.621Z,7.57
2019-05-12T07:40:19.022Z,6.63
2019-05-12T07:42:54.345Z,6.33
2019-05-12T07:45:28.403Z,5.60
2019-05-12T07:48:05.721Z,5.57
2019-05-12T07:50:37.372Z,11.00
2019-05-12T07:53:11.049Z,8.30
2019-05-12T07:55:49.191Z,6.27
2019-05-12T07:58:19.983Z,3.13
2019-05-12T08:01:02.126Z,11.57
2019-05-12T08:07:05.736Z,5.57
2019-05-12T08:09:39.397Z,7.20
2019-05-12T08:12:19.479Z,6.07
2019-05-12T08:14:48.251Z,7.53
2019-05-12T08:17:24.447Z,5.03
2019-05-12T08:23:37.795Z,7.53
2019-05-12T08:26:16.188Z,7.57
2019-05-12T08:28:45.270Z,8.07
2019-05-12T08:31:25.882Z,7.20
2019-05-12T08:33:54.203Z,5.70
2019-05-12T08:36:27.861Z,6.93
2019-05-12T08:39:05.596Z,6.30
2019-05-12T08:41:38.359Z,8.60
2019-05-12T08:44:13.517Z,4.83
2019-05-12T08:46:51.939Z,5.00
2019-05-12T08:49:23.460Z,8.47
2019-05-12T08:52:00.067Z,4.90
2019-05-12T08:54:33.668Z,7.17
2019-05-12T08:57:07.471Z,5.03
2019-05-12T08:59:41.114Z,4.77
2019-05-12T09:02:14.790Z,2.77
2019-05-12T09:04:51.525Z,4.70
2019-05-12T09:07:24.493Z,5.10
2019-05-12T09:09:58.180Z,5.53
2019-05-12T09:12:33.613Z,6.97
2019-05-12T09:15:08.907Z,9.37
2019-05-12T09:17:51.640Z,9.33
2019-05-12T09:20:17.917Z,5.23
2019-05-12T09:22:52.780Z,5.43
2019-05-12T09:25:26.923Z,5.87
2019-05-12T09:28:00.523Z,10.03
2019-05-12T09:30:34.230Z,5.83
2019-05-12T09:33:07.898Z,5.60
2019-05-12T09:35:43.577Z,6.87
2019-05-12T09:38:26.217Z,5.20
2019-05-12T09:41:00.226Z,5.70
2019-05-12T09:43:27.971Z,8.70
2019-05-12T09:46:03.686Z,5.90
2019-05-12T09:48:39.120Z,4.23
2019-05-12T09:51:13.321Z,4.73
2019-05-12T09:53:50.744Z,6.67
2019-05-12T09:56:23.986Z,7.57
2019-05-12T09:59:02.842Z,7.13
2019-05-12T10:01:39.473Z,7.83
2019-05-12T10:07:57.063Z,7.27
2019-05-12T10:10:38.108Z,9.37
2019-05-12T10:13:06.031Z,6.27
2019-05-12T10:15:39.762Z,8.10
2019-05-12T10:18:14.349Z,8.00
2019-05-12T10:24:41.604Z,6.93
2019-05-12T10:27:11.353Z,6.57
2019-05-12T10:29:44.993Z,5.33
2019-05-12T10:32:18.683Z,5.80
2019-05-12T10:34:53.777Z,7.40
2019-05-12T10:37:29.459Z,4.90
2019-05-12T10:40:04.198Z,6.27
2019-05-12T10:42:39.748Z,6.93
2019-05-12T10:45:18.937Z,6.17
2019-05-12T10:47:49.220Z,8.90
2019-05-12T10:50:23.925Z,7.67
2019-05-12T10:52:57.523Z,6.43
2019-05-12T10:55:32.927Z,6.67
2019-05-12T10:58:07.319Z,8.07
2019-05-12T11:00:41.179Z,6.63
2019-05-12T11:03:15.569Z,6.70
2019-05-12T11:05:54.681Z,7.97
2019-05-12T11:08:24.822Z,9.50
2019-05-12T11:11:01.154Z,6.23
2019-05-12T11:13:34.129Z,6.63
2019-05-12T11:16:07.723Z,8.10
2019-05-12T11:18:43.581Z,8.00
2019-05-12T11:21:16.732Z,6.90
2019-05-12T11:23:50.810Z,7.50
2019-05-12T11:26:24.379Z,5.63
2019-05-12T11:28:58.073Z,4.10
2019-05-12T11:31:33.474Z,7.03
2019-05-12T11:34:07.165Z,5.07
2019-05-12T11:36:40.804Z,6.77
2019-05-12T11:39:14.380Z,8.00
2019-05-12T11:41:48.010Z,6.57
2019-05-12T11:44:23.221Z,11.30
2019-05-12T11:46:56.932Z,6.13
2019-05-12T11:53:16.876Z,5.60
2019-05-12T11:55:50.471Z,7.20
2019-05-12T11:58:24.100Z,7.77
2019-05-12T12:01:04.744Z,5.53
2019-05-12T12:03:34.950Z,5.53
2019-05-12T12:09:49.409Z,4.30
2019-05-12T12:12:21.028Z,1.80
2019-05-12T12:14:54.666Z,4.27
2019-05-12T12:17:31.027Z,2.70
2019-05-12T12:20:04.873Z,1.53
2019-05-12T12:22:45.421Z,3.57
2019-05-12T12:25:23.971Z,3.17
2019-05-12T12:27:57.547Z,2.50
2019-05-12T12:30:33.677Z,4.37
2019-05-12T12:33:06.623Z,3.37
2019-05-12T12:35:40.351Z,2.57
2019-05-12T12:38:14.293Z,4.47
2019-05-12T12:40:48.028Z,2.87
2019-05-12T12:43:21.619Z,3.87
2019-05-12T12:46:03.156Z,4.03
2019-05-12T12:48:36.795Z,2.10
2019-05-12T12:51:10.463Z,2.83
2019-05-12T12:53:44.119Z,2.97
2019-05-12T12:56:27.670Z,3.47
2019-05-12T12:58:55.260Z,2.70
2019-05-12T13:01:30.897Z,3.37
2019-05-12T13:04:06.397Z,2.40
2019-05-12T13:06:39.174Z,7.37
2019-05-12T13:09:18.509Z,12.50
2019-05-12T13:11:48.144Z,13.07
2019-05-12T13:14:23.437Z,18.40
2019-05-12T13:16:57.174Z,14.67
2019-05-12T13:19:33.108Z,18.37
2019-05-12T13:22:08.976Z,18.13
2019-05-12T13:24:41.416Z,12.63
2019-05-12T13:27:19.217Z,11.37
2019-05-12T13:29:50.463Z,10.90
2019-05-12T13:32:31.973Z,10.83
2019-05-12T13:38:30.334Z,15.10
2019-05-12T13:41:04.381Z,11.83
2019-05-12T13:43:37.943Z,13.00
2019-05-12T13:46:11.506Z,12.00
2019-05-12T13:48:45.132Z,15.07
2019-05-12T13:55:07.804Z,13.17
2019-05-12T13:57:46.241Z,14.50
2019-05-12T14:00:18.051Z,20.20
2019-05-12T14:02:55.606Z,15.00
2019-05-12T14:05:27.077Z,14.10
2019-05-12T14:08:00.803Z,11.73
2019-05-12T14:10:37.394Z,10.93
2019-05-12T14:13:09.843Z,13.47
2019-05-12T14:15:44.317Z,15.93
2019-05-12T14:18:20.546Z,12.67
2019-05-12T14:20:58.788Z,9.77
2019-05-12T14:23:28.742Z,8.17
2019-05-12T14:26:07.444Z,12.00
2019-05-12T14:28:39.447Z,10.73
2019-05-12T14:31:25.986Z,10.47
2019-05-12T14:33:48.284Z,14.13
2019-05-12T14:36:26.524Z,12.77
2019-05-12T14:39:00.373Z,13.80
2019-05-12T14:41:34.191Z,16.53
2019-05-12T14:44:08.055Z,11.47
2019-05-12T14:46:48.691Z,11.77
2019-05-12T14:49:20.254Z,10.93
2019-05-12T14:51:53.928Z,10.67
2019-05-12T14:54:27.536Z,11.40
2019-05-12T14:57:03.403Z,12.83
2019-05-12T14:59:40.923Z,10.83
2019-05-12T15:02:13.614Z,7.10
2019-05-12T15:04:47.000Z,11.77
2019-05-12T15:07:23.646Z,9.60
2019-05-12T15:10:02.490Z,8.47
2019-05-12T15:12:33.514Z,11.00
2019-05-12T15:15:13.885Z,8.77
2019-05-12T15:17:44.847Z,7.53
2019-05-12T15:23:03.751Z,9.70
2019-05-12T15:25:37.597Z,13.63
2019-05-12T15:28:11.341Z,10.17
2019-05-12T15:30:44.979Z,7.97
2019-05-12T15:33:18.735Z,8.50
2019-05-12T15:39:38.406Z,5.70
2019-05-12T15:42:14.241Z,8.47
2019-05-12T15:44:48.000Z,7.93
2019-05-12T15:47:26.751Z,7.87
2019-05-12T15:49:57.520Z,5.53
2019-05-12T15:56:14.764Z,10.23
2019-05-12T15:58:44.168Z,7.77
2019-05-12T16:01:17.953Z,10.07
2019-05-12T16:03:54.202Z,9.13
2019-05-12T16:06:26.933Z,6.93
2019-05-12T16:09:00.892Z,7.77
2019-05-12T16:11:34.859Z,8.90
2019-05-12T16:14:08.531Z,8.63
2019-05-12T16:16:42.870Z,10.53
2019-05-12T16:19:17.554Z,6.80
2019-05-12T16:21:51.219Z,10.10
2019-05-12T16:24:27.370Z,15.43
2019-05-12T16:27:00.158Z,10.57
2019-05-12T16:29:34.048Z,7.77
2019-05-12T16:32:07.905Z,10.77
2019-05-12T16:34:44.993Z,11.17
2019-05-12T16:37:16.781Z,10.93
2019-05-12T16:39:50.793Z,9.93
2019-05-12T16:42:24.457Z,7.50
2019-05-12T16:45:05.937Z,11.50
2019-05-12T16:47:35.744Z,11.17
2019-05-12T16:50:15.189Z,9.30
2019-05-12T16:52:45.314Z,12.27
2019-05-12T16:55:19.366Z,17.37
2019-05-12T16:57:55.967Z,14.07
2019-05-12T17:00:30.941Z,13.30
2019-05-12T17:03:03.985Z,12.90
2019-05-12T17:05:37.588Z,16.03
2019-05-12T17:08:13.677Z,8.43
2019-05-12T17:10:58.396Z,18.20
2019-05-12T17:13:23.593Z,8.83
2019-05-12T17:16:00.068Z,8.33
2019-05-12T17:18:33.945Z,10.00
2019-05-12T17:24:44.965Z,8.57
2019-05-12T17:27:23.894Z,12.87
2019-05-12T17:29:54.154Z,13.67
2019-05-12T17:32:27.787Z,13.00
2019-05-12T17:35:04.027Z,8.73
2019-05-12T17:41:23.611Z,11.63
2019-05-12T17:44:01.354Z,8.40
2019-05-12T17:46:37.890Z,11.50
2019-05-12T17:49:08.091Z,7.47
2019-05-12T17:51:41.724Z,12.17
2019-05-12T17:54:21.519Z,12.93
2019-05-12T17:56:50.787Z,13.40
2019-05-12T17:59:28.965Z,13.03
2019-05-12T18:01:59.795Z,9.97
2019-05-12T18:04:36.828Z,12.00
2019-05-12T18:07:12.992Z,8.37
2019-05-12T18:09:44.233Z,8.90
2019-05-12T18:12:18.441Z,14.13
2019-05-12T18:14:52.449Z,18.67
2019-05-12T18:17:26.078Z,19.63
2019-05-12T18:20:00.974Z,27.37
2019-05-12T18:22:39.323Z,25.43
2019-05-12T18:25:10.338Z,26.40
2019-05-12T18:27:50.166Z,26.50
2019-05-12T18:30:20.382Z,25.27
2019-05-12T18:33:04.085Z,22.53
2019-05-12T18:35:29.247Z,17.57
2019-05-12T18:38:10.113Z,18.60
2019-05-12T18:40:38.186Z,14.93
2019-05-12T18:43:14.013Z,15.27
2019-05-12T18:45:48.847Z,22.27
2019-05-12T18:48:25.103Z,29.17
2019-05-12T18:51:02.905Z,30.90
2019-05-12T18:53:34.901Z,28.53
2019-05-12T18:56:10.406Z,31.63
2019-05-12T18:58:44.409Z,28.10
2019-05-12T19:01:18.399Z,29.73
2019-05-12T19:03:54.577Z,28.47
2019-05-12T19:10:07.141Z,28.20
2019-05-12T19:12:40.822Z,29.83
2019-05-12T19:15:18.834Z,25.87
2019-05-12T19:17:49.892Z,25.10
2019-05-12T19:20:24.043Z,24.30
2019-05-12T19:26:38.286Z,21.93
2019-05-12T19:29:10.489Z,23.30
2019-05-12T19:31:51.879Z,21.10
2019-05-12T19:34:22.752Z,28.27
2019-05-12T19:36:54.891Z,26.47
2019-05-12T19:39:28.492Z,26.23
2019-05-12T19:42:03.745Z,24.67
2019-05-12T19:44:37.529Z,23.80
2019-05-12T19:47:13.632Z,27.40
2019-05-12T19:49:50.591Z,25.97
2019-05-12T19:52:24.239Z,34.03
2019-05-12T19:54:57.601Z,31.57
2019-05-12T19:57:35.326Z,31.70
2019-05-12T20:00:09.405Z,26.23
2019-05-12T20:02:43.008Z,22.23
2019-05-12T20:05:19.691Z,23.77
2019-05-12T20:07:53.806Z,24.13
2019-05-12T20:10:27.591Z,20.67
2019-05-12T20:13:01.203Z,25.03
2019-05-12T20:15:36.710Z,22.00
2019-05-12T20:18:10.079Z,24.33
2019-05-12T20:20:44.830Z,25.53
2019-05-12T20:23:18.544Z,22.47
2019-05-12T20:25:53.476Z,22.83
2019-05-12T20:28:27.365Z,22.60
2019-05-12T20:31:02.831Z,24.03
2019-05-12T20:33:36.235Z,28.17
2019-05-12T20:36:09.977Z,31.33
2019-05-12T20:38:44.444Z,22.63
2019-05-12T20:41:23.668Z,20.77
2019-05-12T20:43:53.531Z,19.80
2019-05-12T20:46:27.245Z,18.60
2019-05-12T20:49:01.128Z,23.20
2019-05-12T20:51:36.125Z,24.43
2019-05-12T20:54:14.112Z,28.33
2019-05-12T20:56:45.211Z,18.60
2019-05-12T20:59:22.314Z,21.23
2019-05-12T21:01:54.274Z,21.40
2019-05-12T21:04:33.460Z,21.00
2019-05-12T21:07:04.561Z,20.00
2019-05-12T21:09:38.419Z,18.77
2019-05-12T21:12:13.831Z,23.10
2019-05-12T21:14:51.586Z,22.13
2019-05-12T21:17:39.100Z,23.90
2019-05-12T21:19:59.494Z,21.00
2019-05-12T21:26:00.462Z,18.10
2019-05-12T21:28:37.263Z,19.93
2019-05-12T21:31:09.328Z,20.53
2019-05-12T21:33:45.737Z,24.37
2019-05-12T21:36:24.155Z,17.37
2019-05-12T21:42:44.078Z,17.80
2019-05-12T21:45:20.261Z,21.80
2019-05-12T21:47:56.314Z,23.53
2019-05-12T21:50:32.481Z,23.07
2019-05-12T21:53:04.354Z,22.40
2019-05-12T21:55:38.170Z,20.17
2019-05-12T21:58:12.895Z,23.90
2019-05-12T22:00:56.091Z,24.23
2019-05-12T22:03:26.220Z,23.63
2019-05-12T22:06:06.431Z,24.10
2019-05-12T22:08:35.257Z,22.03
2019-05-12T22:11:11.464Z,19.40
2019-05-12T22:13:47.239Z,16.83
2019-05-12T22:16:19.917Z,18.77
2019-05-12T22:18:59.042Z,18.57
2019-05-12T22:21:29.098Z,21.10
2019-05-12T22:24:03.913Z,20.03
2019-05-12T22:26:40.366Z,27.30
2019-05-12T22:29:14.602Z,14.07
2019-05-12T22:31:48.356Z,12.60
2019-05-12T22:34:27.361Z,16.80
2019-05-12T22:36:59.234Z,18.23
2019-05-12T22:39:33.951Z,13.17
2019-05-12T22:42:11.678Z,13.70
2019-05-12T22:44:43.747Z,17.37
2019-05-12T22:47:17.754Z,14.97
2019-05-12T22:49:55.326Z,17.87
2019-05-12T22:56:17.790Z,16.00
2019-05-12T22:58:52.003Z,15.77
2019-05-12T23:01:23.562Z,13.33
2019-05-12T23:03:57.278Z,16.40
2019-05-12T23:06:35.894Z,12.77
2019-05-12T23:12:56.970Z,12.77
2019-05-12T23:15:27.976Z,7.63
2019-05-12T23:18:04.196Z,12.23
2019-05-12T23:20:43.703Z,11.13
2019-05-12T23:23:18.822Z,12.27
2019-05-12T23:26:00.196Z,11.20
2019-05-12T23:28:27.208Z,12.00
2019-05-12T23:31:00.801Z,11.83
2019-05-12T23:33:36.652Z,10.70
2019-05-12T23:36:15.762Z,8.93
2019-05-12T23:38:45.034Z,8.33
2019-05-12T23:41:18.883Z,3.90
2019-05-12T23:43:53.745Z,5.83
2019-05-12T23:46:27.488Z,7.07
2019-05-12T23:49:01.092Z,6.13
2019-05-12T23:51:34.796Z,7.33
2019-05-12T23:54:08.523Z,7.73
2019-05-12T23:56:43.897Z,8.23
2019-05-12T23:59:17.380Z,5.20
